Time;durP1;ratioP1;P1;durP2;ratioP2;P2;SDS_P1;SDS_P2;PMS_P1;PMS_P2;Temp;Humidity;BMP_temperature;BMP_pressure;BME280_temperature;BME280_humidity;BME280_pressure;Samples;Min_cycle;Max_cycle;Signal;HPM_P1;HPM_P2
2022/09/04 00:02:24;;;;;;;13.73;9.48;;;;;;;19.26;67.25;101109.25;4994764;28;20477;-78
2022/09/04 00:04:55;;;;;;;13.15;8.52;;;;;;;19.21;67.60;101107.00;4994831;28;20057;-78
2022/09/04 00:07:30;;;;;;;10.77;9.13;;;;;;;19.20;67.81;101118.09;4994726;28;20046;-78
2022/09/04 00:10:08;;;;;;;15.82;10.55;;;;;;;19.26;67.33;101112.84;4994878;28;20499;-77
2022/09/04 00:12:45;;;;;;;12.68;9.30;;;;;;;19.30;67.31;101116.91;4994785;28;20471;-78
2022/09/04 00:15:18;;;;;;;14.73;8.98;;;;;;;19.21;67.23;101119.78;4994776;28;20133;-78
2022/09/04 00:18:15;;;;;;;22.83;9.57;;;;;;;19.21;67.04;101112.47;4994363;28;20046;-78
2022/09/04 00:20:58;;;;;;;18.90;9.68;;;;;;;19.13;67.73;101125.25;4975452;28;20866;-78
2022/09/04 00:23:37;;;;;;;23.70;9.63;;;;;;;19.09;67.66;101113.81;4994547;28;20038;-79
2022/09/04 00:26:22;;;;;;;15.45;9.13;;;;;;;19.00;67.94;101117.56;4994268;28;20034;-78
2022/09/04 00:28:55;;;;;;;24.73;9.55;;;;;;;19.06;67.59;101110.56;5014620;28;20064;-78
2022/09/04 00:31:35;;;;;;;16.13;10.60;;;;;;;19.15;67.80;101121.31;5033627;28;20037;-78
2022/09/04 00:34:22;;;;;;;21.27;10.98;;;;;;;19.07;67.84;101121.31;5033653;28;20812;-78
2022/09/04 00:36:51;;;;;;;21.75;10.75;;;;;;;19.00;67.80;101115.69;5033440;28;20037;-79
2022/09/04 00:39:35;;;;;;;14.88;9.25;;;;;;;19.03;67.92;101111.75;5033629;28;20045;-78
2022/09/04 00:42:03;;;;;;;11.93;9.30;;;;;;;19.07;67.81;101106.84;5033529;28;20034;-78
2022/09/04 00:44:34;;;;;;;22.63;10.48;;;;;;;18.98;67.97;101116.88;5033424;28;20112;-78
2022/09/04 00:47:24;;;;;;;35.03;10.82;;;;;;;18.94;68.18;101118.22;5033111;28;20076;-78
2022/09/04 00:50:11;;;;;;;23.45;11.07;;;;;;;18.82;68.52;101108.66;5033435;28;20064;-78
2022/09/04 00:52:53;;;;;;;16.50;10.82;;;;;;;18.82;68.93;101109.50;5032510;28;20040;-78
2022/09/04 00:55:45;;;;;;;16.48;9.85;;;;;;;18.70;69.16;101112.69;5015424;28;20041;-78
2022/09/04 00:58:29;;;;;;;19.80;11.43;;;;;;;18.81;68.91;101124.13;5033233;28;20065;-78
2022/09/04 01:00:57;;;;;;;19.67;11.93;;;;;;;18.76;68.88;101109.31;5033223;28;20041;-78
2022/09/04 01:03:44;;;;;;;12.35;10.35;;;;;;;18.77;68.84;101122.78;5033030;28;20064;-78
2022/09/04 01:06:34;;;;;;;23.52;12.10;;;;;;;18.64;69.38;101136.03;5033019;28;20126;-78
2022/09/04 01:09:18;;;;;;;20.88;11.88;;;;;;;18.54;69.83;101128.97;5033146;28;20045;-78
2022/09/04 01:12:20;;;;;;;18.00;12.73;;;;;;;18.43;70.15;101122.78;5033048;28;20113;-77
2022/09/04 01:14:55;;;;;;;18.77;12.02;;;;;;;18.30;70.48;101116.06;5032965;28;20077;-78
2022/09/04 01:17:26;;;;;;;14.52;11.13;;;;;;;18.22;71.14;101133.25;5032784;28;20494;-77
2022/09/04 01:19:58;;;;;;;23.98;12.30;;;;;;;18.15;71.48;101128.59;5032903;28;20116;-78
2022/09/04 01:22:40;;;;;;;20.77;13.57;;;;;;;18.01;72.10;101130.03;5032769;28;20029;-78
2022/09/04 01:25:14;;;;;;;17.17;12.37;;;;;;;17.92;72.39;101128.25;5032822;28;20041;-78
2022/09/04 01:28:08;;;;;;;20.95;13.43;;;;;;;17.85;72.58;101122.63;5032724;28;20430;-77
2022/09/04 01:30:47;;;;;;;21.52;12.75;;;;;;;17.87;72.85;101139.66;5007634;28;20396;-78
2022/09/04 01:33:30;;;;;;;17.63;12.65;;;;;;;17.83;72.98;101129.22;5032349;28;20056;-77
2022/09/04 01:36:26;;;;;;;16.35;12.25;;;;;;;17.93;72.92;101121.81;5032408;28;20084;-77
2022/09/04 01:38:55;;;;;;;15.93;11.98;;;;;;;17.91;72.87;101121.13;5032363;28;20052;-77
2022/09/04 01:41:23;;;;;;;17.38;12.27;;;;;;;17.87;73.24;101114.28;5032284;28;20073;-78
2022/09/04 01:43:49;;;;;;;22.50;11.88;;;;;;;17.89;73.05;101107.69;5032296;28;20045;-78
2022/09/04 01:46:15;;;;;;;22.15;12.50;;;;;;;17.92;72.83;101112.78;5032169;28;20415;-77
2022/09/04 01:48:58;;;;;;;12.90;10.98;;;;;;;17.94;72.84;101109.94;5032205;28;20044;-79
2022/09/04 01:51:58;;;;;;;18.50;11.85;;;;;;;18.00;72.54;101113.88;5014540;28;20047;-79
2022/09/04 01:54:33;;;;;;;16.10;12.10;;;;;;;17.96;72.51;101116.06;5032141;28;20033;-79
2022/09/04 01:57:06;;;;;;;15.63;13.15;;;;;;;18.09;72.14;101124.66;5032161;28;20083;-79
2022/09/04 01:59:42;;;;;;;38.00;12.18;;;;;;;18.07;71.72;101113.03;5032176;28;20034;-77
2022/09/04 02:03:06;;;;;;;17.50;11.40;;;;;;;17.95;71.95;101107.03;5031933;28;20041;-77
2022/09/04 02:05:53;;;;;;;26.80;12.63;;;;;;;18.11;71.43;101133.50;5007398;28;20107;-79
2022/09/04 02:08:37;;;;;;;18.85;11.82;;;;;;;18.10;71.63;101126.38;5031918;28;20444;-79
2022/09/04 02:11:21;;;;;;;23.13;13.30;;;;;;;18.14;71.86;101130.47;5031984;28;20033;-77
2022/09/04 02:14:19;;;;;;;21.90;12.65;;;;;;;18.10;71.83;101131.81;5031975;28;20095;-77
2022/09/04 02:16:57;;;;;;;15.65;12.38;;;;;;;18.17;71.69;101132.00;5031738;28;20080;-78
2022/09/04 02:19:42;;;;;;;19.90;12.57;;;;;;;18.20;71.47;101131.66;5031837;28;20105;-78
2022/09/04 02:22:26;;;;;;;16.02;12.00;;;;;;;18.19;71.37;101144.47;5031783;28;20041;-77
2022/09/04 02:24:54;;;;;;;19.00;12.15;;;;;;;18.20;71.15;101162.47;5031606;28;20033;-77
2022/09/04 02:27:33;;;;;;;19.05;13.02;;;;;;;18.19;71.15;101152.63;5031732;28;20816;-77
2022/09/04 02:30:07;;;;;;;14.75;12.38;;;;;;;18.18;71.30;101153.63;5025126;28;20053;-77
2022/09/04 02:33:06;;;;;;;16.60;13.88;;;;;;;18.20;71.74;101156.19;5031872;28;20353;-78
2022/09/04 02:35:52;;;;;;;20.70;13.07;;;;;;;18.20;71.49;101157.03;5031677;28;20037;-77
2022/09/04 02:38:37;;;;;;;15.77;11.75;;;;;;;18.35;70.80;101163.59;5031533;28;20112;-77
2022/09/04 02:41:28;;;;;;;20.27;11.65;;;;;;;18.35;70.32;101174.47;5031656;28;20033;-77
2022/09/04 02:44:11;;;;;;;17.52;11.88;;;;;;;18.43;70.22;101185.44;5031472;28;20026;-79
2022/09/04 02:47:11;;;;;;;15.20;11.63;;;;;;;18.58;69.64;101190.31;5031546;28;20029;-77
2022/09/04 02:50:03;;;;;;;14.38;11.82;;;;;;;18.63;69.10;101187.94;5013718;28;20033;-77
2022/09/04 02:52:48;;;;;;;13.10;11.57;;;;;;;18.55;69.33;101196.94;5013748;28;20364;-77
2022/09/04 02:55:44;;;;;;;12.70;10.63;;;;;;;18.61;69.40;101189.97;5031504;28;20037;-78
2022/09/04 02:58:35;;;;;;;21.27;11.02;;;;;;;18.67;69.22;101200.22;5031549;28;20099;-78
2022/09/04 03:01:03;;;;;;;14.48;10.82;;;;;;;18.79;68.83;101198.91;5031464;28;20119;-78
2022/09/04 03:03:58;;;;;;;11.70;10.38;;;;;;;18.91;68.17;101203.91;5031208;28;20053;-76
2022/09/04 03:06:31;;;;;;;15.77;10.23;;;;;;;18.91;67.65;101192.16;5031309;28;20029;-79
2022/09/04 03:09:13;;;;;;;13.32;9.98;;;;;;;18.99;67.03;101192.16;5013658;28;20419;-77
2022/09/04 03:11:49;;;;;;;22.58;12.32;;;;;;;19.06;66.64;101195.09;5030941;28;20542;-77
2022/09/04 03:14:23;;;;;;;18.83;10.00;;;;;;;19.10;66.57;101202.78;5013331;28;20152;-77
2022/09/04 03:17:00;;;;;;;13.95;10.30;;;;;;;19.10;66.67;101197.34;5034395;28;20029;-77
2022/09/04 03:19:44;;;;;;;14.70;10.00;;;;;;;19.17;66.27;101190.22;5034451;28;20061;-77
2022/09/04 03:22:44;;;;;;;22.48;9.93;;;;;;;19.13;66.08;101191.56;5034397;28;20029;-77
2022/09/04 03:25:54;;;;;;;15.95;11.00;;;;;;;19.17;66.12;101198.38;5034572;28;20029;-77
2022/09/04 03:28:38;;;;;;;21.52;10.93;;;;;;;19.08;65.79;101199.34;5034878;28;20105;-77
2022/09/04 03:31:27;;;;;;;14.20;9.27;;;;;;;19.15;66.05;101207.72;5026934;28;20044;-78
2022/09/04 03:34:16;;;;;;;19.85;9.98;;;;;;;19.14;65.38;101215.09;5034708;28;20044;-77
2022/09/04 03:36:57;;;;;;;14.23;10.32;;;;;;;19.17;65.31;101206.56;5016626;28;20411;-78
2022/09/04 03:39:53;;;;;;;14.18;10.18;;;;;;;19.10;65.47;101231.94;5034662;28;20037;-77
2022/09/04 03:42:29;;;;;;;16.67;9.80;;;;;;;19.13;65.12;101212.50;5016799;28;20067;-78
2022/09/04 03:45:25;;;;;;;11.48;10.02;;;;;;;19.07;64.96;101219.47;5034498;28;20045;-77
2022/09/04 03:48:09;;;;;;;17.10;11.00;;;;;;;19.07;65.15;101229.53;5034374;28;20038;-77
2022/09/04 03:51:12;;;;;;;12.80;10.75;;;;;;;19.07;65.02;101221.34;5034450;28;20042;-79
2022/09/04 03:53:58;;;;;;;18.88;10.80;;;;;;;19.11;64.45;101226.28;5034412;28;20045;-78
2022/09/04 03:56:39;;;;;;;16.70;10.60;;;;;;;19.07;64.72;101224.94;5034360;28;20092;-78
2022/09/04 03:59:07;;;;;;;15.80;9.93;;;;;;;19.03;64.24;101209.91;5034383;28;20467;-78
2022/09/04 04:01:43;;;;;;;14.00;9.35;;;;;;;18.96;63.93;101226.06;5034275;28;20522;-77
2022/09/04 04:04:42;;;;;;;12.85;8.73;;;;;;;18.88;63.58;101230.66;5034102;28;20143;-77
2022/09/04 04:07:45;;;;;;;14.00;10.73;;;;;;;18.96;64.04;101230.66;5033927;28;20363;-76
2022/09/04 04:10:23;;;;;;;;;;;;;;;18.88;63.98;101239.69;5034421;28;20117;-76
2022/09/04 04:13:11;;;;;;;15.25;10.68;;;;;;;18.83;64.50;101238.47;5034061;28;20561;-76
2022/09/04 04:15:59;;;;;;;20.48;10.95;;;;;;;18.89;64.23;101229.63;5004134;28;20071;-78
2022/09/04 04:18:47;;;;;;;12.43;9.20;;;;;;;18.93;63.83;101245.47;5033941;28;20041;-77
2022/09/04 04:21:39;;;;;;;10.82;8.13;;;;;;;18.99;63.06;101246.69;5033970;28;20061;-77
2022/09/04 04:24:37;;;;;;;17.70;9.85;;;;;;;18.88;62.90;101236.97;5003475;28;20045;-76
2022/09/04 04:27:21;;;;;;;15.77;9.38;;;;;;;18.80;63.06;101226.03;4962499;28;20090;-78
2022/09/04 04:29:55;;;;;;;12.27;8.95;;;;;;;18.92;63.04;101248.38;5033596;28;20033;-78
2022/09/04 04:32:30;;;;;;;17.90;10.38;;;;;;;18.86;63.39;101240.88;5033902;28;20037;-77
2022/09/04 04:35:28;;;;;;;17.55;10.65;;;;;;;18.83;63.70;101235.75;5033795;28;20045;-78
2022/09/04 04:38:21;;;;;;;28.73;10.50;;;;;;;18.80;64.35;101233.34;5033509;28;20036;-78
2022/09/04 04:41:12;;;;;;;17.40;9.75;;;;;;;18.81;64.36;101248.66;5033593;28;20034;-79
2022/09/04 04:43:49;;;;;;;15.68;9.48;;;;;;;18.76;64.23;101242.84;5033406;28;20116;-77
2022/09/04 04:46:38;;;;;;;13.85;10.35;;;;;;;18.74;64.39;101244.91;5033386;28;20045;-77
2022/09/04 04:49:26;;;;;;;14.27;9.50;;;;;;;18.78;64.18;101251.72;5020729;28;20046;-78
2022/09/04 04:52:00;;;;;;;15.50;9.55;;;;;;;18.88;64.07;101252.44;5033355;28;20052;-78
2022/09/04 04:54:43;;;;;;;20.40;10.07;;;;;;;18.80;63.64;101233.34;5033433;28;20099;-77
2022/09/04 04:57:15;;;;;;;12.77;9.18;;;;;;;18.86;63.34;101243.59;5033196;28;20029;-78
2022/09/04 05:00:11;;;;;;;15.02;9.57;;;;;;;18.93;63.41;101250.06;5033143;28;20057;-78
2022/09/04 05:02:52;;;;;;;12.18;8.98;;;;;;;19.00;62.99;101246.53;5033080;28;20088;-78
2022/09/04 05:05:52;;;;;;;9.48;8.05;;;;;;;19.08;62.17;101256.63;5033024;28;20061;-80
2022/09/04 05:08:30;;;;;;;15.75;8.82;;;;;;;19.04;62.07;101252.53;5015223;28;20412;-80
2022/09/04 05:11:06;;;;;;;32.83;7.57;;;;;;;19.10;61.54;101251.88;5014884;28;20033;-78
2022/09/04 05:13:37;;;;;;;10.15;7.55;;;;;;;19.14;60.89;101250.53;5032768;28;20029;-78
2022/09/04 05:16:19;;;;;;;19.00;8.07;;;;;;;19.05;60.43;101229.69;5032651;28;20025;-77
2022/09/04 05:19:13;;;;;;;11.35;6.90;;;;;;;19.19;59.86;101245.44;5032752;28;20116;-81
2022/09/04 05:21:39;;;;;;;16.90;7.68;;;;;;;19.22;59.84;101250.56;5032919;28;20079;-81
2022/09/04 05:24:15;;;;;;;12.88;7.57;;;;;;;19.21;60.04;101248.84;5032540;28;20037;-80
2022/09/04 05:27:14;;;;;;;13.10;7.28;;;;;;;19.20;60.04;101252.59;5033034;28;20036;-84
2022/09/04 05:29:51;;;;;;;12.43;6.85;;;;;;;19.22;60.01;101256.00;5012656;28;20064;-81
2022/09/04 05:32:39;;;;;;;11.52;7.70;;;;;;;19.19;60.34;101250.88;5013019;28;20069;-82
2022/09/04 05:35:11;;;;;;;21.42;7.72;;;;;;;19.30;60.29;101266.94;4995380;28;20034;-81
2022/09/04 05:37:49;;;;;;;14.03;7.97;;;;;;;19.35;60.05;101272.75;5012793;28;20029;-82
2022/09/04 05:40:32;;;;;;;10.18;7.07;;;;;;;19.38;59.71;101260.66;5012835;28;20065;-82
2022/09/04 05:43:29;;;;;;;10.82;7.05;;;;;;;19.31;60.07;101256.88;5014058;28;20072;-80
2022/09/04 05:46:00;;;;;;;13.43;6.40;;;;;;;19.39;59.81;101255.06;5015223;28;20034;-82
2022/09/04 05:48:29;;;;;;;7.80;6.13;;;;;;;19.46;59.79;101266.16;5014747;28;20066;-81
2022/09/04 05:51:17;;;;;;;9.70;5.80;;;;;;;19.54;59.81;101267.03;5015049;28;20119;-85
2022/09/04 05:54:20;;;;;;;12.95;5.95;;;;;;;19.57;59.66;101263.09;5012993;28;20041;-85
2022/09/04 05:57:04;;;;;;;;;;;;;;;19.73;59.16;101270.47;4995546;28;20129;-83
2022/09/04 05:59:46;;;;;;;9.50;6.28;;;;;;;19.82;58.97;101277.66;4995148;28;19957;-81
2022/09/04 06:02:30;;;;;;;7.90;5.40;;;;;;;19.89;58.61;101270.50;5012917;28;20049;-82
2022/09/04 06:05:20;;;;;;;11.32;6.30;;;;;;;19.88;58.54;101274.25;5012874;28;20559;-80
2022/09/04 06:07:51;;;;;;;12.57;6.32;;;;;;;19.88;58.82;101274.25;5011906;28;20034;-77
2022/09/04 06:10:45;;;;;;;18.15;7.60;;;;;;;19.96;58.79;101277.00;5011870;28;20034;-78
2022/09/04 06:13:30;;;;;;;13.82;5.32;;;;;;;19.90;58.27;101255.84;5011852;28;20033;-77
2022/09/04 06:16:09;;;;;;;15.20;5.90;;;;;;;19.95;58.00;101269.81;5011737;28;20044;-77
2022/09/04 06:18:59;;;;;;;9.27;5.60;;;;;;;20.04;57.36;101288.78;5011709;28;20435;-79
2022/09/04 06:21:46;;;;;;;8.60;4.82;;;;;;;20.05;57.23;101286.91;5011826;28;20040;-79
2022/09/04 06:25:01;;;;;;;11.60;4.53;;;;;;;20.09;57.33;101283.66;5005146;28;20044;-79
2022/09/04 06:27:57;;;;;;;11.20;5.32;;;;;;;20.05;57.64;101267.78;4973058;28;20038;-78
2022/09/04 06:30:28;;;;;;;7.78;5.15;;;;;;;20.19;57.38;101282.63;5018891;28;20583;-78
2022/09/04 06:32:57;;;;;;;11.90;4.00;;;;;;;20.32;56.40;101288.47;5029084;28;20036;-77
2022/09/04 06:35:54;;;;;;;6.70;4.90;;;;;;;20.27;56.59;101291.72;5028704;28;20037;-78
2022/09/04 06:38:47;;;;;;;11.57;5.38;;;;;;;20.37;56.22;101292.38;5029666;28;20040;-78
2022/09/04 06:41:12;;;;;;;;;;;;;;;20.46;55.93;101288.63;5031361;28;20037;-77
2022/09/04 06:43:56;;;;;;;15.77;7.70;;;;;;;20.52;55.73;101285.19;5031186;28;19963;-78
2022/09/04 06:46:26;;;;;;;4.93;3.38;;;;;;;20.56;55.02;101286.56;5013528;28;20060;-77
2022/09/04 06:49:20;;;;;;;7.03;3.92;;;;;;;20.63;55.19;101290.31;5031239;28;20037;-77
2022/09/04 06:52:13;;;;;;;5.60;3.88;;;;;;;20.64;54.90;101278.34;5034747;28;20541;-80
2022/09/04 06:55:10;;;;;;;13.65;4.63;;;;;;;20.72;54.63;101290.28;5035345;28;20060;-79
2022/09/04 06:57:42;;;;;;;11.75;3.55;;;;;;;20.76;55.01;101288.91;4965852;28;20653;-78
2022/09/04 07:00:09;;;;;;;6.82;3.53;;;;;;;20.83;54.20;101287.16;5035349;28;20087;-77
2022/09/04 07:03:06;;;;;;;11.60;4.47;;;;;;;20.87;54.30;101283.91;5034893;28;20076;-78
2022/09/04 07:05:40;;;;;;;9.25;4.43;;;;;;;20.94;54.56;101284.94;5034790;28;20060;-78
2022/09/04 07:08:30;;;;;;;6.22;4.20;;;;;;;21.02;54.73;101289.50;5034732;28;20030;-77
2022/09/04 07:11:40;;;;;;;6.40;4.85;;;;;;;21.19;54.70;101293.09;5035052;28;20030;-76
2022/09/04 07:15:05;;;;;;;7.97;4.03;;;;;;;21.21;54.28;101278.19;5035005;28;20033;-79
2022/09/04 07:17:48;;;;;;;7.38;3.65;;;;;;;21.34;53.91;101308.59;4954611;29;20572;-79
2022/09/04 07:20:16;;;;;;;6.13;3.85;;;;;;;21.35;54.17;101299.31;5027813;28;20113;-80
2022/09/04 07:23:01;;;;;;;13.68;4.65;;;;;;;21.39;54.26;101300.69;5034986;28;20029;-79
2022/09/04 07:25:48;;;;;;;9.88;4.30;;;;;;;21.50;53.74;101305.75;5017219;28;20432;-81
2022/09/04 07:28:34;;;;;;;16.73;6.80;;;;;;;21.44;53.71;101314.66;5034432;28;20045;-80
2022/09/04 07:31:07;;;;;;;6.15;4.18;;;;;;;21.49;54.23;101306.78;5034330;28;20044;-78
2022/09/04 07:34:05;;;;;;;7.13;4.22;;;;;;;21.56;53.95;101296.81;5034040;28;20430;-79
2022/09/04 07:36:44;;;;;;;12.40;4.63;;;;;;;21.69;53.98;101316.25;5034009;28;20033;-78
2022/09/04 07:39:21;;;;;;;23.23;13.02;;;;;;;21.84;53.80;101321.81;5034142;28;20419;-79
2022/09/04 07:42:00;;;;;;;11.32;4.80;;;;;;;21.82;53.20;101301.09;5033517;28;20044;-79
2022/09/04 07:44:38;;;;;;;10.93;5.88;;;;;;;21.97;53.28;101307.53;5034434;28;20068;-78
2022/09/04 07:47:33;;;;;;;6.97;4.65;;;;;;;21.97;52.93;101305.66;5034486;28;20040;-77
2022/09/04 07:50:19;;;;;;;11.85;4.18;;;;;;;22.10;52.81;101316.88;5033818;28;20089;-78
2022/09/04 07:53:24;;;;;;;6.10;4.40;;;;;;;22.22;52.69;101309.06;5016396;28;20036;-77
2022/09/04 07:56:01;;;;;;;12.43;4.43;;;;;;;22.18;53.04;101286.66;5034062;28;20041;-78
2022/09/04 07:58:43;;;;;;;12.55;4.78;;;;;;;22.35;53.04;101309.31;5034179;28;20368;-78
2022/09/04 08:01:26;;;;;;;7.35;4.65;;;;;;;22.55;51.91;101315.09;5033822;28;20049;-78
2022/09/04 08:04:29;;;;;;;6.63;4.93;;;;;;;22.59;51.71;101311.81;5033815;28;20511;-76
2022/09/04 08:06:59;;;;;;;;;;;;;;;22.67;51.96;101335.59;5034503;28;20120;-77
2022/09/04 08:09:32;;;;;;;17.25;5.53;;;;;;;22.64;51.85;101325.81;5034151;28;19909;-77
2022/09/04 08:12:20;;;;;;;8.43;5.03;;;;;;;22.84;51.67;101314.34;5034058;28;20361;-76
2022/09/04 08:14:53;;;;;;;8.07;4.78;;;;;;;23.04;51.08;101320.97;5034061;28;20499;-80
2022/09/04 08:17:49;;;;;;;6.63;4.75;;;;;;;23.10;50.61;101320.22;5034034;28;20127;-76
2022/09/04 08:20:51;;;;;;;5.88;4.63;;;;;;;23.07;50.83;101321.44;5034116;28;20472;-81
2022/09/04 08:23:35;;;;;;;6.25;4.47;;;;;;;23.16;50.33;101324.94;5033678;28;20047;-77
2022/09/04 08:26:00;;;;;;;4.75;3.50;;;;;;;23.10;50.38;101314.72;5033385;28;20042;-80
2022/09/04 08:28:32;;;;;;;10.50;4.93;;;;;;;23.08;50.54;101300.34;5033291;28;20037;-79
2022/09/04 08:31:24;;;;;;;6.25;3.53;;;;;;;23.23;50.39;101314.91;5033021;28;20037;-78
2022/09/04 08:33:49;;;;;;;5.37;4.30;;;;;;;23.20;49.94;101309.81;4995382;28;20072;-80
2022/09/04 08:36:36;;;;;;;4.95;4.13;;;;;;;23.12;50.43;101307.13;5033427;28;20033;-79
2022/09/04 08:39:09;;;;;;;6.10;3.38;;;;;;;23.18;50.03;101309.97;5015352;28;20392;-81
2022/09/04 08:42:05;;;;;;;13.00;4.30;;;;;;;23.18;50.33;101301.75;5033580;28;20039;-82
2022/09/04 08:45:09;;;;;;;7.35;5.03;;;;;;;23.26;50.01;101298.91;5016321;28;20092;-83
2022/09/04 08:48:20;;;;;;;5.80;4.00;;;;;;;23.27;50.22;101294.28;5034004;28;20506;-82
2022/09/04 08:51:14;;;;;;;11.13;4.18;;;;;;;23.31;49.65;101282.72;5015892;28;20041;-82
2022/09/04 08:54:13;;;;;;;13.55;4.20;;;;;;;23.39;50.03;101297.38;5034149;28;20041;-82
2022/09/04 08:56:53;;;;;;;6.50;4.68;;;;;;;23.46;50.29;101277.22;5033526;28;20095;-83
2022/09/04 08:59:31;;;;;;;6.95;4.43;;;;;;;23.67;49.88;101281.91;5033526;28;20045;-83
2022/09/04 09:02:05;;;;;;;12.02;4.97;;;;;;;23.91;49.75;101281.56;5033595;28;20045;-82
2022/09/04 09:04:35;;;;;;;7.57;4.32;;;;;;;24.04;48.35;101275.31;5015779;28;20487;-80
2022/09/04 09:07:37;;;;;;;6.75;4.70;;;;;;;23.90;48.71;101273.50;5033365;28;20068;-81
2022/09/04 09:10:41;;;;;;;10.15;4.78;;;;;;;24.06;48.89;101270.50;5034337;28;20041;-82
2022/09/04 09:13:25;;;;;;;4.53;3.40;;;;;;;24.04;48.41;101280.81;5033745;28;20030;-83
2022/09/04 09:16:21;;;;;;;5.60;4.13;;;;;;;24.07;47.94;101275.78;5016565;28;20103;-81
2022/09/04 09:18:49;;;;;;;9.63;4.63;;;;;;;24.05;48.12;101268.78;4997873;28;20072;-83
2022/09/04 09:21:39;;;;;;;6.93;5.63;;;;;;;24.17;47.20;101258.97;5032786;28;20116;-82
2022/09/04 09:24:26;;;;;;;9.23;6.70;;;;;;;24.16;48.21;101238.88;5033145;28;20037;-83
2022/09/04 09:27:10;;;;;;;10.65;5.72;;;;;;;;;;5033247;28;20100;-82
2022/09/04 09:30:00;;;;;;;8.10;5.68;;;;;;;24.35;48.07;101260.19;5031239;28;20037;-83
2022/09/04 09:32:38;;;;;;;10.13;7.28;;;;;;;24.29;48.17;101257.41;5013082;28;20038;-83
2022/09/04 09:35:07;;;;;;;10.65;5.88;;;;;;;24.30;48.40;101259.97;5013096;28;20034;-81
2022/09/04 09:37:43;;;;;;;12.73;6.07;;;;;;;24.22;48.32;101240.84;4995677;28;20034;-83
2022/09/04 09:40:38;;;;;;;11.32;5.68;;;;;;;24.45;48.18;101257.09;5013334;28;20080;-82
2022/09/04 09:43:26;;;;;;;7.18;5.22;;;;;;;24.56;47.92;101269.44;4996110;28;20424;-84
2022/09/04 09:46:16;;;;;;;8.25;5.22;;;;;;;24.31;47.59;101245.13;5012412;28;20046;-82
2022/09/04 09:49:09;;;;;;;7.35;4.75;;;;;;;24.74;47.54;101259.63;5013808;28;20429;-82
2022/09/04 09:51:44;;;;;;;11.50;4.50;;;;;;;25.01;46.30;101263.44;4995784;28;20041;-82
2022/09/04 09:54:39;;;;;;;6.88;4.60;;;;;;;25.07;46.02;101272.78;5012911;28;20531;-82
2022/09/04 09:57:13;;;;;;;6.35;4.53;;;;;;;25.07;46.21;101270.03;4984510;28;20046;-82
2022/09/04 10:00:01;;;;;;;19.63;6.40;;;;;;;25.08;46.27;101271.72;5012818;28;20034;-82
2022/09/04 10:02:57;;;;;;;15.45;6.60;;;;;;;25.16;46.32;101266.06;5013058;28;20060;-83
2022/09/04 10:05:37;;;;;;;7.68;5.60;;;;;;;25.32;46.24;101268.44;5012502;28;20069;-83
2022/09/04 10:08:26;;;;;;;8.65;4.63;;;;;;;25.35;45.97;101248.78;5012433;28;20069;-84
2022/09/04 10:11:16;;;;;;;10.23;5.63;;;;;;;25.66;45.42;101275.81;5012836;28;20038;-84
2022/09/04 10:14:27;;;;;;;17.65;5.47;;;;;;;25.72;45.11;101277.72;5012446;28;20038;-83
2022/09/04 10:17:24;;;;;;;5.38;4.53;;;;;;;25.71;44.99;101276.91;5012260;28;20045;-82
2022/09/04 10:20:01;;;;;;;10.68;5.55;;;;;;;25.62;45.17;101280.91;5012284;28;20518;-81
2022/09/04 10:22:56;;;;;;;11.57;4.85;;;;;;;25.64;45.21;101276.03;5012252;28;20065;-82
2022/09/04 10:25:43;;;;;;;14.05;5.20;;;;;;;25.65;45.39;101282.41;4965808;28;20029;-82
2022/09/04 10:28:46;;;;;;;12.50;4.95;;;;;;;25.76;45.19;101285.38;4994624;28;20357;-83
2022/09/04 10:31:37;;;;;;;21.13;5.78;;;;;;;25.97;44.81;101274.19;5012305;28;20038;-83
2022/09/04 10:34:22;;;;;;;7.38;3.85;;;;;;;26.14;44.34;101271.03;4994641;28;20095;-82
2022/09/04 10:37:09;;;;;;;7.32;4.15;;;;;;;26.21;44.11;101266.38;5011984;28;20084;-82
2022/09/04 10:42:52;;;;;;;8.98;4.32;;;;;;;26.25;43.84;101254.75;5012491;28;20032;-82
2022/09/04 10:45:18;;;;;;;7.88;3.75;;;;;;;26.44;43.70;101264.94;4995233;28;20439;-82
2022/09/04 10:48:11;;;;;;;11.45;4.35;;;;;;;26.37;43.48;101271.50;4995121;28;20484;-83
2022/09/04 10:50:59;;;;;;;47.33;5.50;;;;;;;26.37;43.33;101263.22;4995081;28;20038;-83
2022/09/04 10:54:17;;;;;;;5.60;3.33;;;;;;;26.35;43.46;101262.59;5012546;28;20034;-82
2022/09/04 10:57:16;;;;;;;24.80;16.63;;;;;;;26.30;43.78;101271.50;4948766;28;20033;-84
2022/09/04 10:59:56;;;;;;;6.25;4.18;;;;;;;26.25;43.64;101271.28;4995782;28;20128;-83
2022/09/04 11:02:51;;;;;;;4.50;2.83;;;;;;;26.29;43.41;101269.81;4994536;28;20038;-83
2022/09/04 11:05:50;;;;;;;10.30;4.28;;;;;;;26.36;43.65;101280.84;5011404;28;20054;-83
2022/09/04 11:08:47;;;;;;;6.97;2.85;;;;;;;26.34;43.13;101281.03;5012313;28;20034;-83
2022/09/04 11:11:40;;;;;;;9.07;3.28;;;;;;;26.28;43.23;101286.56;4994289;28;20440;-83
2022/09/04 11:14:30;;;;;;;7.75;2.70;;;;;;;26.27;43.27;101282.09;4994612;28;20034;-82
2022/09/04 11:17:27;;;;;;;3.03;2.33;;;;;;;26.22;43.02;101276.38;4994875;28;20041;-83
2022/09/04 11:20:11;;;;;;;11.90;2.80;;;;;;;26.25;42.98;101268.53;5011873;28;20030;-83
2022/09/04 11:23:05;;;;;;;5.90;3.38;;;;;;;26.27;42.93;101268.31;5011660;28;20041;-83
2022/09/04 11:26:01;;;;;;;5.00;3.30;;;;;;;26.27;42.97;101263.63;4994008;28;20034;-84
2022/09/04 11:28:51;;;;;;;10.50;3.83;;;;;;;26.20;43.08;101275.75;5011707;28;20044;-83
2022/09/04 11:31:19;;;;;;;15.05;2.88;;;;;;;26.19;42.54;101279.56;5011504;28;20116;-83
2022/09/04 11:34:12;;;;;;;3.75;2.40;;;;;;;26.17;42.58;101277.03;5011638;28;20033;-80
2022/09/04 11:36:59;;;;;;;5.95;2.00;;;;;;;26.23;42.48;101283.59;5012871;28;20037;-81
2022/09/04 11:39:30;;;;;;;6.13;1.90;;;;;;;26.11;42.54;101282.50;4997792;28;20431;-90
2022/09/04 11:42:16;;;;;;;2.80;2.03;;;;;;;26.20;42.60;101268.31;4997730;28;20041;-83
2022/09/04 11:44:51;;;;;;;8.85;2.88;;;;;;;26.20;42.21;101273.00;5015439;28;20056;-81
2022/09/04 11:47:44;;;;;;;3.25;2.38;;;;;;;26.18;42.50;101270.44;5015499;28;20045;-82
2022/09/04 11:50:15;;;;;;;8.93;3.72;;;;;;;26.19;42.57;101271.28;5015348;28;20065;-83
2022/09/04 11:52:56;;;;;;;11.93;2.67;;;;;;;26.23;42.35;101270.66;5015389;28;20034;-84
2022/09/04 11:55:25;;;;;;;5.63;2.87;;;;;;;26.29;41.78;101252.41;5015573;28;20495;-82
2022/09/04 11:58:08;;;;;;;4.50;2.47;;;;;;;26.31;41.77;101259.41;5014435;28;20033;-79
2022/09/04 12:00:59;;;;;;;4.65;2.08;;;;;;;26.26;41.86;101263.88;5014753;28;20060;-81
2022/09/04 12:03:50;;;;;;;16.95;3.05;;;;;;;26.22;41.92;101244.13;5014554;28;20140;-81
2022/09/04 12:06:33;;;;;;;10.82;2.47;;;;;;;26.27;42.23;101262.78;5014450;28;20357;-81
2022/09/04 12:09:42;;;;;;;3.03;2.22;;;;;;;26.23;41.98;101253.25;4997060;28;20041;-81
2022/09/04 12:12:29;;;;;;;4.07;2.45;;;;;;;26.20;41.87;101242.66;4988710;28;20042;-78
2022/09/04 12:15:01;;;;;;;2.38;2.17;;;;;;;26.12;42.24;101240.06;5014494;28;20050;-80
2022/09/04 12:17:46;;;;;;;5.53;1.83;;;;;;;26.07;42.23;101234.34;5014427;28;20034;-79
2022/09/04 12:20:36;;;;;;;4.95;2.92;;;;;;;26.14;42.62;101232.44;5014613;28;20042;-79
2022/09/04 12:23:17;;;;;;;12.65;3.38;;;;;;;26.15;42.75;101243.28;5014221;28;20033;-79
2022/09/04 12:25:52;;;;;;;15.90;2.88;;;;;;;26.29;42.25;101244.13;5014450;28;20560;-78
2022/09/04 12:28:43;;;;;;;9.02;2.78;;;;;;;26.37;41.96;101243.91;5014455;28;20088;-80
2022/09/04 12:31:41;;;;;;;8.43;3.30;;;;;;;26.44;42.17;101239.25;5013894;28;20033;-79
2022/09/04 12:34:15;;;;;;;3.25;2.10;;;;;;;26.47;41.79;101242.44;5014039;28;20034;-79
2022/09/04 12:37:12;;;;;;;6.30;2.28;;;;;;;26.55;41.83;101234.97;5015163;28;20052;-82
2022/09/04 12:39:58;;;;;;;7.47;2.35;;;;;;;26.50;41.61;101232.88;5021300;28;20029;-84
2022/09/04 12:42:47;;;;;;;5.45;2.28;;;;;;;26.52;41.27;101233.50;5033721;28;20037;-78
2022/09/04 12:45:26;;;;;;;3.45;2.33;;;;;;;26.64;40.99;101237.28;5033431;28;20025;-77